Seattle, Washington
Current Conditions -  °F | °C
As of 3:53 PM on Sunday 25 Jan 2015 (Local Time) from KBFI Reporting Station
Scattered Clouds Scattered Clouds  
Wind Chill: 63°   Ceiling: Unl
Heat Index: 63°   Visibility: 10mi
Dew Point: 49°   Wind: 3mph
Humidity: 60%   Direction: 310°NW
Pressure: 30.07"   Gusts: NA
Location:  47.6°N, 122.32°W
Report Text: KBFI 252353Z 31003KT 10SM SCT150 17/09 A3007 RMK AO2 SLP183 T01720094 10183 20133 56013
Loading
Personal Weather Stations






























Interactive Weather Map New forecast layout! Learn more

10-Day Weather Forecast

Advertisements
Track Severe Weather on mobile